sensor_id;sensor_type;location;lat;lon;timestamp;P1;durP1;ratioP1;P2;durP2;ratioP2
75542;SDS011;64129;53.508;10.476;2023-10-19T00:01:09;9.63;;;6.85;;
75542;SDS011;64129;53.508;10.476;2023-10-19T00:03:48;9.10;;;6.45;;
75542;SDS011;64129;53.508;10.476;2023-10-19T00:06:19;7.20;;;5.78;;
75542;SDS011;64129;53.508;10.476;2023-10-19T00:08:51;9.63;;;7.10;;
75542;SDS011;64129;53.508;10.476;2023-10-19T00:11:27;7.72;;;6.50;;
75542;SDS011;64129;53.508;10.476;2023-10-19T00:14:11;10.35;;;7.47;;
75542;SDS011;64129;53.508;10.476;2023-10-19T00:17:01;9.02;;;7.00;;
75542;SDS011;64129;53.508;10.476;2023-10-19T00:19:42;9.98;;;7.25;;
75542;SDS011;64129;53.508;10.476;2023-10-19T00:22:27;9.00;;;6.50;;
75542;SDS011;64129;53.508;10.476;2023-10-19T00:25:00;9.57;;;6.78;;
75542;SDS011;64129;53.508;10.476;2023-10-19T00:27:41;10.20;;;7.05;;
75542;SDS011;64129;53.508;10.476;2023-10-19T00:30:19;8.85;;;7.00;;
75542;SDS011;64129;53.508;10.476;2023-10-19T00:33:08;16.20;;;8.23;;
75542;SDS011;64129;53.508;10.476;2023-10-19T00:35:58;11.80;;;6.68;;
75542;SDS011;64129;53.508;10.476;2023-10-19T00:38:43;10.35;;;6.63;;
75542;SDS011;64129;53.508;10.476;2023-10-19T00:41:42;7.15;;;6.05;;
75542;SDS011;64129;53.508;10.476;2023-10-19T00:44:16;9.57;;;6.38;;
75542;SDS011;64129;53.508;10.476;2023-10-19T00:46:55;9.48;;;5.65;;
75542;SDS011;64129;53.508;10.476;2023-10-19T00:49:34;8.57;;;6.25;;
75542;SDS011;64129;53.508;10.476;2023-10-19T00:52:05;8.95;;;6.30;;
75542;SDS011;64129;53.508;10.476;2023-10-19T00:54:53;9.07;;;6.28;;
75542;SDS011;64129;53.508;10.476;2023-10-19T00:57:35;10.43;;;6.47;;
75542;SDS011;64129;53.508;10.476;2023-10-19T01:00:24;10.30;;;6.50;;
75542;SDS011;64129;53.508;10.476;2023-10-19T01:03:01;9.95;;;6.50;;
75542;SDS011;64129;53.508;10.476;2023-10-19T01:05:42;7.70;;;5.80;;
75542;SDS011;64129;53.508;10.476;2023-10-19T01:08:34;8.52;;;6.25;;
75542;SDS011;64129;53.508;10.476;2023-10-19T01:11:34;7.97;;;4.85;;
75542;SDS011;64129;53.508;10.476;2023-10-19T01:14:20;9.82;;;7.63;;
75542;SDS011;64129;53.508;10.476;2023-10-19T01:17:08;6.70;;;4.63;;
75542;SDS011;64129;53.508;10.476;2023-10-19T01:19:42;7.18;;;5.00;;
75542;SDS011;64129;53.508;10.476;2023-10-19T01:22:18;9.65;;;6.28;;
75542;SDS011;64129;53.508;10.476;2023-10-19T01:25:03;8.90;;;6.68;;
75542;SDS011;64129;53.508;10.476;2023-10-19T01:27:38;9.13;;;6.65;;
75542;SDS011;64129;53.508;10.476;2023-10-19T01:30:18;12.57;;;6.57;;
75542;SDS011;64129;53.508;10.476;2023-10-19T01:35:55;7.22;;;5.70;;
75542;SDS011;64129;53.508;10.476;2023-10-19T01:38:40;12.50;;;6.18;;
75542;SDS011;64129;53.508;10.476;2023-10-19T01:41:10;9.05;;;6.22;;
75542;SDS011;64129;53.508;10.476;2023-10-19T01:43:45;10.32;;;6.68;;
75542;SDS011;64129;53.508;10.476;2023-10-19T01:46:38;10.98;;;7.13;;
75542;SDS011;64129;53.508;10.476;2023-10-19T01:49:23;11.32;;;7.18;;
75542;SDS011;64129;53.508;10.476;2023-10-19T01:52:07;9.70;;;6.85;;
75542;SDS011;64129;53.508;10.476;2023-10-19T01:54:47;7.90;;;5.72;;
75542;SDS011;64129;53.508;10.476;2023-10-19T01:57:22;11.35;;;6.88;;
75542;SDS011;64129;53.508;10.476;2023-10-19T01:59:57;9.13;;;5.90;;
75542;SDS011;64129;53.508;10.476;2023-10-19T02:02:38;9.50;;;6.35;;
75542;SDS011;64129;53.508;10.476;2023-10-19T02:07:48;10.25;;;8.15;;
75542;SDS011;64129;53.508;10.476;2023-10-19T02:10:21;7.93;;;5.38;;
75542;SDS011;64129;53.508;10.476;2023-10-19T02:13:12;12.13;;;7.13;;
75542;SDS011;64129;53.508;10.476;2023-10-19T02:15:43;12.10;;;8.25;;
75542;SDS011;64129;53.508;10.476;2023-10-19T02:18:20;11.10;;;7.70;;
75542;SDS011;64129;53.508;10.476;2023-10-19T02:20:56;10.55;;;6.78;;
75542;SDS011;64129;53.508;10.476;2023-10-19T02:23:39;11.40;;;7.72;;
75542;SDS011;64129;53.508;10.476;2023-10-19T02:26:12;9.70;;;6.78;;
75542;SDS011;64129;53.508;10.476;2023-10-19T02:28:49;13.77;;;7.55;;
75542;SDS011;64129;53.508;10.476;2023-10-19T02:31:22;10.55;;;6.82;;
75542;SDS011;64129;53.508;10.476;2023-10-19T02:34:17;9.77;;;7.05;;
75542;SDS011;64129;53.508;10.476;2023-10-19T02:36:45;10.50;;;7.35;;
75542;SDS011;64129;53.508;10.476;2023-10-19T02:39:15;10.77;;;7.72;;
75542;SDS011;64129;53.508;10.476;2023-10-19T02:41:50;11.20;;;6.97;;
75542;SDS011;64129;53.508;10.476;2023-10-19T02:44:30;14.13;;;8.45;;
75542;SDS011;64129;53.508;10.476;2023-10-19T02:47:03;12.20;;;7.90;;
75542;SDS011;64129;53.508;10.476;2023-10-19T02:49:49;11.35;;;7.78;;
75542;SDS011;64129;53.508;10.476;2023-10-19T02:52:21;11.02;;;7.65;;
75542;SDS011;64129;53.508;10.476;2023-10-19T02:54:55;10.57;;;6.57;;
75542;SDS011;64129;53.508;10.476;2023-10-19T02:57:33;10.52;;;7.07;;
75542;SDS011;64129;53.508;10.476;2023-10-19T03:00:02;11.25;;;7.95;;
75542;SDS011;64129;53.508;10.476;2023-10-19T03:02:49;9.93;;;6.47;;
75542;SDS011;64129;53.508;10.476;2023-10-19T03:05:32;10.80;;;7.68;;
75542;SDS011;64129;53.508;10.476;2023-10-19T03:08:16;11.38;;;6.43;;
75542;SDS011;64129;53.508;10.476;2023-10-19T03:10:50;8.32;;;6.28;;
75542;SDS011;64129;53.508;10.476;2023-10-19T03:13:39;11.15;;;7.50;;
75542;SDS011;64129;53.508;10.476;2023-10-19T03:16:10;9.88;;;7.10;;
75542;SDS011;64129;53.508;10.476;2023-10-19T03:18:52;10.50;;;7.20;;
75542;SDS011;64129;53.508;10.476;2023-10-19T03:21:26;11.50;;;7.45;;
75542;SDS011;64129;53.508;10.476;2023-10-19T03:24:16;9.15;;;5.53;;
75542;SDS011;64129;53.508;10.476;2023-10-19T03:27:09;10.73;;;6.97;;
75542;SDS011;64129;53.508;10.476;2023-10-19T03:30:11;10.85;;;7.82;;
75542;SDS011;64129;53.508;10.476;2023-10-19T03:33:02;10.85;;;7.38;;
75542;SDS011;64129;53.508;10.476;2023-10-19T03:35:39;10.57;;;7.10;;
75542;SDS011;64129;53.508;10.476;2023-10-19T03:38:13;10.40;;;7.25;;
75542;SDS011;64129;53.508;10.476;2023-10-19T03:40:50;12.43;;;7.45;;
75542;SDS011;64129;53.508;10.476;2023-10-19T03:43:26;10.90;;;6.45;;
75542;SDS011;64129;53.508;10.476;2023-10-19T03:46:12;10.93;;;6.00;;
75542;SDS011;64129;53.508;10.476;2023-10-19T03:49:15;11.23;;;7.80;;
75542;SDS011;64129;53.508;10.476;2023-10-19T03:51:52;11.43;;;7.90;;
75542;SDS011;64129;53.508;10.476;2023-10-19T03:54:47;11.77;;;7.50;;
75542;SDS011;64129;53.508;10.476;2023-10-19T03:57:27;10.98;;;7.60;;
75542;SDS011;64129;53.508;10.476;2023-10-19T04:00:27;10.48;;;6.90;;
75542;SDS011;64129;53.508;10.476;2023-10-19T04:03:21;11.77;;;7.93;;
75542;SDS011;64129;53.508;10.476;2023-10-19T04:05:52;10.75;;;7.60;;
75542;SDS011;64129;53.508;10.476;2023-10-19T04:08:26;13.10;;;8.45;;
75542;SDS011;64129;53.508;10.476;2023-10-19T04:11:18;13.45;;;8.88;;
75542;SDS011;64129;53.508;10.476;2023-10-19T04:13:57;12.95;;;8.60;;
75542;SDS011;64129;53.508;10.476;2023-10-19T04:16:39;13.13;;;9.23;;
75542;SDS011;64129;53.508;10.476;2023-10-19T04:19:15;12.70;;;7.80;;
75542;SDS011;64129;53.508;10.476;2023-10-19T04:21:44;12.05;;;8.30;;
75542;SDS011;64129;53.508;10.476;2023-10-19T04:24:23;11.30;;;8.15;;
75542;SDS011;64129;53.508;10.476;2023-10-19T04:26:55;13.40;;;8.65;;
75542;SDS011;64129;53.508;10.476;2023-10-19T04:29:29;12.70;;;8.27;;
75542;SDS011;64129;53.508;10.476;2023-10-19T04:32:05;12.13;;;7.75;;
75542;SDS011;64129;53.508;10.476;2023-10-19T04:34:36;12.88;;;7.60;;
75542;SDS011;64129;53.508;10.476;2023-10-19T04:37:03;13.40;;;9.30;;
75542;SDS011;64129;53.508;10.476;2023-10-19T04:39:36;12.52;;;8.40;;
75542;SDS011;64129;53.508;10.476;2023-10-19T04:42:16;11.48;;;7.88;;
75542;SDS011;64129;53.508;10.476;2023-10-19T04:44:57;16.70;;;9.65;;
75542;SDS011;64129;53.508;10.476;2023-10-19T04:47:33;8.63;;;6.80;;
75542;SDS011;64129;53.508;10.476;2023-10-19T04:50:09;14.07;;;8.45;;
75542;SDS011;64129;53.508;10.476;2023-10-19T04:52:51;14.80;;;9.85;;
75542;SDS011;64129;53.508;10.476;2023-10-19T04:55:22;16.70;;;9.77;;
75542;SDS011;64129;53.508;10.476;2023-10-19T04:57:51;13.63;;;9.18;;
75542;SDS011;64129;53.508;10.476;2023-10-19T05:00:57;12.70;;;8.73;;
75542;SDS011;64129;53.508;10.476;2023-10-19T05:03:30;14.57;;;9.68;;
75542;SDS011;64129;53.508;10.476;2023-10-19T05:06:07;11.85;;;7.75;;
75542;SDS011;64129;53.508;10.476;2023-10-19T05:08:36;14.27;;;8.93;;
75542;SDS011;64129;53.508;10.476;2023-10-19T05:11:12;12.88;;;9.20;;
75542;SDS011;64129;53.508;10.476;2023-10-19T05:13:43;13.27;;;9.48;;
75542;SDS011;64129;53.508;10.476;2023-10-19T05:16:10;14.10;;;9.68;;
75542;SDS011;64129;53.508;10.476;2023-10-19T05:18:44;16.08;;;9.35;;
75542;SDS011;64129;53.508;10.476;2023-10-19T05:21:35;11.65;;;8.80;;
75542;SDS011;64129;53.508;10.476;2023-10-19T05:24:10;14.20;;;8.30;;
75542;SDS011;64129;53.508;10.476;2023-10-19T05:26:41;16.00;;;8.57;;
75542;SDS011;64129;53.508;10.476;2023-10-19T05:29:11;16.52;;;9.45;;
75542;SDS011;64129;53.508;10.476;2023-10-19T05:31:52;14.85;;;8.80;;
75542;SDS011;64129;53.508;10.476;2023-10-19T05:34:30;12.43;;;8.95;;
75542;SDS011;64129;53.508;10.476;2023-10-19T05:37:06;15.30;;;8.75;;
75542;SDS011;64129;53.508;10.476;2023-10-19T05:39:50;13.95;;;8.93;;
75542;SDS011;64129;53.508;10.476;2023-10-19T05:42:24;13.75;;;9.10;;
75542;SDS011;64129;53.508;10.476;2023-10-19T05:44:57;13.38;;;9.50;;
75542;SDS011;64129;53.508;10.476;2023-10-19T05:47:26;13.27;;;9.05;;
75542;SDS011;64129;53.508;10.476;2023-10-19T05:50:02;15.00;;;10.23;;
75542;SDS011;64129;53.508;10.476;2023-10-19T05:52:47;14.45;;;9.82;;
75542;SDS011;64129;53.508;10.476;2023-10-19T05:55:18;15.73;;;9.93;;
75542;SDS011;64129;53.508;10.476;2023-10-19T05:57:53;13.88;;;9.80;;
75542;SDS011;64129;53.508;10.476;2023-10-19T06:00:25;13.88;;;8.75;;
75542;SDS011;64129;53.508;10.476;2023-10-19T06:02:56;12.75;;;8.20;;
75542;SDS011;64129;53.508;10.476;2023-10-19T06:05:27;14.75;;;8.40;;
75542;SDS011;64129;53.508;10.476;2023-10-19T06:08:02;15.05;;;9.27;;
75542;SDS011;64129;53.508;10.476;2023-10-19T06:10:39;15.02;;;8.98;;
75542;SDS011;64129;53.508;10.476;2023-10-19T06:13:10;16.45;;;9.00;;
75542;SDS011;64129;53.508;10.476;2023-10-19T06:15:43;15.95;;;8.93;;
75542;SDS011;64129;53.508;10.476;2023-10-19T06:18:18;17.15;;;10.20;;
75542;SDS011;64129;53.508;10.476;2023-10-19T06:20:49;16.23;;;9.13;;
75542;SDS011;64129;53.508;10.476;2023-10-19T06:23:26;14.93;;;10.20;;
75542;SDS011;64129;53.508;10.476;2023-10-19T06:26:09;13.43;;;8.18;;
75542;SDS011;64129;53.508;10.476;2023-10-19T06:31:42;13.00;;;9.18;;
75542;SDS011;64129;53.508;10.476;2023-10-19T06:34:14;14.68;;;9.73;;
75542;SDS011;64129;53.508;10.476;2023-10-19T06:36:47;16.05;;;9.40;;
75542;SDS011;64129;53.508;10.476;2023-10-19T06:39:16;15.68;;;9.93;;
75542;SDS011;64129;53.508;10.476;2023-10-19T06:42:04;15.73;;;10.60;;
75542;SDS011;64129;53.508;10.476;2023-10-19T06:44:44;18.80;;;10.80;;
75542;SDS011;64129;53.508;10.476;2023-10-19T06:47:15;14.02;;;10.15;;
75542;SDS011;64129;53.508;10.476;2023-10-19T06:49:55;11.43;;;8.40;;
75542;SDS011;64129;53.508;10.476;2023-10-19T06:52:24;13.70;;;9.73;;
75542;SDS011;64129;53.508;10.476;2023-10-19T06:54:53;14.40;;;9.73;;
75542;SDS011;64129;53.508;10.476;2023-10-19T06:57:27;14.10;;;9.23;;
75542;SDS011;64129;53.508;10.476;2023-10-19T07:00:04;16.77;;;10.68;;
75542;SDS011;64129;53.508;10.476;2023-10-19T07:02:47;14.40;;;8.38;;
75542;SDS011;64129;53.508;10.476;2023-10-19T07:05:30;13.68;;;9.88;;
75542;SDS011;64129;53.508;10.476;2023-10-19T07:07:58;15.13;;;10.35;;
75542;SDS011;64129;53.508;10.476;2023-10-19T07:10:43;15.52;;;10.30;;
75542;SDS011;64129;53.508;10.476;2023-10-19T07:13:15;13.15;;;8.88;;
75542;SDS011;64129;53.508;10.476;2023-10-19T07:16:26;17.38;;;10.00;;
75542;SDS011;64129;53.508;10.476;2023-10-19T07:19:25;13.23;;;8.35;;
75542;SDS011;64129;53.508;10.476;2023-10-19T07:22:02;16.42;;;10.80;;
75542;SDS011;64129;53.508;10.476;2023-10-19T07:24:39;14.10;;;9.45;;
75542;SDS011;64129;53.508;10.476;2023-10-19T07:27:13;15.32;;;10.55;;
75542;SDS011;64129;53.508;10.476;2023-10-19T07:30:00;16.83;;;9.80;;
75542;SDS011;64129;53.508;10.476;2023-10-19T07:32:41;15.73;;;9.82;;
75542;SDS011;64129;53.508;10.476;2023-10-19T07:35:10;16.48;;;10.18;;
75542;SDS011;64129;53.508;10.476;2023-10-19T07:37:44;15.38;;;10.77;;
75542;SDS011;64129;53.508;10.476;2023-10-19T07:40:18;14.70;;;10.05;;
75542;SDS011;64129;53.508;10.476;2023-10-19T07:42:50;17.52;;;10.20;;
75542;SDS011;64129;53.508;10.476;2023-10-19T07:45:30;16.15;;;10.57;;
75542;SDS011;64129;53.508;10.476;2023-10-19T07:48:00;14.02;;;9.55;;
75542;SDS011;64129;53.508;10.476;2023-10-19T07:50:35;16.77;;;10.43;;
75542;SDS011;64129;53.508;10.476;2023-10-19T07:53:19;16.77;;;10.90;;
75542;SDS011;64129;53.508;10.476;2023-10-19T07:55:59;15.52;;;8.82;;
75542;SDS011;64129;53.508;10.476;2023-10-19T07:58:30;14.40;;;10.15;;
75542;SDS011;64129;53.508;10.476;2023-10-19T08:01:02;14.90;;;10.38;;
75542;SDS011;64129;53.508;10.476;2023-10-19T08:03:35;15.50;;;9.48;;
75542;SDS011;64129;53.508;10.476;2023-10-19T08:06:02;19.15;;;10.07;;
75542;SDS011;64129;53.508;10.476;2023-10-19T08:08:36;15.07;;;9.80;;
75542;SDS011;64129;53.508;10.476;2023-10-19T08:11:04;16.25;;;11.30;;
75542;SDS011;64129;53.508;10.476;2023-10-19T08:13:49;18.95;;;11.90;;
75542;SDS011;64129;53.508;10.476;2023-10-19T08:16:19;18.15;;;10.07;;
75542;SDS011;64129;53.508;10.476;2023-10-19T08:18:51;12.95;;;8.57;;
75542;SDS011;64129;53.508;10.476;2023-10-19T08:21:30;16.08;;;9.90;;
75542;SDS011;64129;53.508;10.476;2023-10-19T08:23:59;15.88;;;9.95;;
75542;SDS011;64129;53.508;10.476;2023-10-19T08:26:31;16.80;;;10.70;;
75542;SDS011;64129;53.508;10.476;2023-10-19T08:29:02;17.55;;;10.55;;
75542;SDS011;64129;53.508;10.476;2023-10-19T08:31:43;19.75;;;11.70;;
75542;SDS011;64129;53.508;10.476;2023-10-19T08:34:19;13.65;;;9.38;;
75542;SDS011;64129;53.508;10.476;2023-10-19T08:37:18;16.35;;;10.48;;
75542;SDS011;64129;53.508;10.476;2023-10-19T08:39:48;17.17;;;10.52;;
75542;SDS011;64129;53.508;10.476;2023-10-19T08:42:29;17.05;;;11.40;;
75542;SDS011;64129;53.508;10.476;2023-10-19T08:45:14;16.15;;;11.23;;
75542;SDS011;64129;53.508;10.476;2023-10-19T08:50:36;18.08;;;10.82;;
75542;SDS011;64129;53.508;10.476;2023-10-19T08:53:31;17.83;;;10.90;;
75542;SDS011;64129;53.508;10.476;2023-10-19T08:56:14;16.17;;;10.95;;
75542;SDS011;64129;53.508;10.476;2023-10-19T08:58:44;18.45;;;12.27;;
75542;SDS011;64129;53.508;10.476;2023-10-19T09:01:12;14.93;;;9.23;;
75542;SDS011;64129;53.508;10.476;2023-10-19T09:03:47;17.58;;;10.70;;
75542;SDS011;64129;53.508;10.476;2023-10-19T09:06:34;17.15;;;9.93;;
75542;SDS011;64129;53.508;10.476;2023-10-19T09:12:12;17.58;;;10.50;;
75542;SDS011;64129;53.508;10.476;2023-10-19T09:14:40;16.90;;;11.77;;
75542;SDS011;64129;53.508;10.476;2023-10-19T09:17:20;15.70;;;10.93;;
75542;SDS011;64129;53.508;10.476;2023-10-19T09:20:22;19.45;;;12.13;;
75542;SDS011;64129;53.508;10.476;2023-10-19T09:22:58;18.30;;;11.73;;
75542;SDS011;64129;53.508;10.476;2023-10-19T09:25:38;16.75;;;10.75;;
75542;SDS011;64129;53.508;10.476;2023-10-19T09:28:22;15.05;;;8.73;;
75542;SDS011;64129;53.508;10.476;2023-10-19T09:30:53;17.55;;;10.27;;
75542;SDS011;64129;53.508;10.476;2023-10-19T09:33:26;19.13;;;11.80;;
75542;SDS011;64129;53.508;10.476;2023-10-19T09:36:03;13.60;;;8.82;;
75542;SDS011;64129;53.508;10.476;2023-10-19T09:39:13;14.90;;;11.32;;
75542;SDS011;64129;53.508;10.476;2023-10-19T09:41:49;16.15;;;10.43;;
75542;SDS011;64129;53.508;10.476;2023-10-19T09:44:25;18.58;;;12.35;;
75542;SDS011;64129;53.508;10.476;2023-10-19T09:47:03;17.33;;;11.45;;
75542;SDS011;64129;53.508;10.476;2023-10-19T09:49:51;16.83;;;11.48;;
75542;SDS011;64129;53.508;10.476;2023-10-19T09:52:44;16.88;;;11.77;;
75542;SDS011;64129;53.508;10.476;2023-10-19T10:01:21;16.10;;;11.55;;
75542;SDS011;64129;53.508;10.476;2023-10-19T10:03:51;15.48;;;9.55;;
75542;SDS011;64129;53.508;10.476;2023-10-19T10:09:24;16.52;;;11.35;;
75542;SDS011;64129;53.508;10.476;2023-10-19T10:15:00;15.50;;;10.60;;
75542;SDS011;64129;53.508;10.476;2023-10-19T10:17:38;15.98;;;11.90;;
75542;SDS011;64129;53.508;10.476;2023-10-19T10:26:00;19.02;;;13.50;;
75542;SDS011;64129;53.508;10.476;2023-10-19T10:28:34;13.43;;;9.38;;
75542;SDS011;64129;53.508;10.476;2023-10-19T10:33:49;18.15;;;12.70;;
75542;SDS011;64129;53.508;10.476;2023-10-19T10:36:57;20.67;;;12.60;;
75542;SDS011;64129;53.508;10.476;2023-10-19T10:39:39;18.92;;;10.82;;
75542;SDS011;64129;53.508;10.476;2023-10-19T10:42:11;16.35;;;11.75;;
75542;SDS011;64129;53.508;10.476;2023-10-19T10:44:51;18.20;;;12.15;;
75542;SDS011;64129;53.508;10.476;2023-10-19T10:47:34;18.40;;;12.40;;
75542;SDS011;64129;53.508;10.476;2023-10-19T10:50:07;15.88;;;10.63;;
75542;SDS011;64129;53.508;10.476;2023-10-19T10:55:30;13.63;;;9.63;;
75542;SDS011;64129;53.508;10.476;2023-10-19T10:58:03;16.17;;;11.10;;
75542;SDS011;64129;53.508;10.476;2023-10-19T11:00:30;15.73;;;11.68;;
75542;SDS011;64129;53.508;10.476;2023-10-19T11:03:14;20.70;;;11.27;;
75542;SDS011;64129;53.508;10.476;2023-10-19T11:06:09;11.27;;;7.15;;
75542;SDS011;64129;53.508;10.476;2023-10-19T11:08:52;17.58;;;10.98;;
75542;SDS011;64129;53.508;10.476;2023-10-19T11:11:39;16.48;;;11.93;;
75542;SDS011;64129;53.508;10.476;2023-10-19T11:14:11;15.35;;;11.98;;
75542;SDS011;64129;53.508;10.476;2023-10-19T11:16:38;19.27;;;12.82;;
75542;SDS011;64129;53.508;10.476;2023-10-19T11:19:09;17.50;;;12.80;;
75542;SDS011;64129;53.508;10.476;2023-10-19T11:21:56;15.60;;;11.55;;
75542;SDS011;64129;53.508;10.476;2023-10-19T11:24:42;16.40;;;11.27;;
75542;SDS011;64129;53.508;10.476;2023-10-19T11:27:25;16.73;;;13.02;;
75542;SDS011;64129;53.508;10.476;2023-10-19T11:30:08;19.38;;;12.68;;
75542;SDS011;64129;53.508;10.476;2023-10-19T11:32:42;15.23;;;10.90;;
75542;SDS011;64129;53.508;10.476;2023-10-19T11:35:12;19.60;;;12.65;;
75542;SDS011;64129;53.508;10.476;2023-10-19T11:37:49;12.63;;;8.40;;
75542;SDS011;64129;53.508;10.476;2023-10-19T11:40:23;14.95;;;10.35;;
75542;SDS011;64129;53.508;10.476;2023-10-19T11:42:54;18.80;;;11.93;;
75542;SDS011;64129;53.508;10.476;2023-10-19T11:45:35;16.83;;;11.93;;
75542;SDS011;64129;53.508;10.476;2023-10-19T11:48:16;17.65;;;12.40;;
75542;SDS011;64129;53.508;10.476;2023-10-19T11:50:45;17.85;;;13.18;;
75542;SDS011;64129;53.508;10.476;2023-10-19T11:53:20;18.05;;;12.60;;
75542;SDS011;64129;53.508;10.476;2023-10-19T11:55:56;17.45;;;12.68;;
75542;SDS011;64129;53.508;10.476;2023-10-19T11:58:23;18.38;;;12.13;;
75542;SDS011;64129;53.508;10.476;2023-10-19T12:00:53;18.48;;;12.35;;
75542;SDS011;64129;53.508;10.476;2023-10-19T12:03:23;18.42;;;12.43;;
75542;SDS011;64129;53.508;10.476;2023-10-19T12:05:59;17.70;;;13.05;;
75542;SDS011;64129;53.508;10.476;2023-10-19T12:08:29;20.42;;;13.20;;
75542;SDS011;64129;53.508;10.476;2023-10-19T12:11:14;17.92;;;12.10;;
75542;SDS011;64129;53.508;10.476;2023-10-19T12:13:47;17.33;;;12.35;;
75542;SDS011;64129;53.508;10.476;2023-10-19T12:16:20;15.38;;;10.93;;
75542;SDS011;64129;53.508;10.476;2023-10-19T12:18:58;18.70;;;11.93;;
75542;SDS011;64129;53.508;10.476;2023-10-19T12:21:34;15.40;;;10.98;;
75542;SDS011;64129;53.508;10.476;2023-10-19T12:24:17;21.77;;;12.70;;
75542;SDS011;64129;53.508;10.476;2023-10-19T12:27:01;18.60;;;12.10;;
75542;SDS011;64129;53.508;10.476;2023-10-19T12:29:41;17.60;;;12.05;;
75542;SDS011;64129;53.508;10.476;2023-10-19T12:32:13;17.02;;;12.20;;
75542;SDS011;64129;53.508;10.476;2023-10-19T12:34:42;18.17;;;12.73;;
75542;SDS011;64129;53.508;10.476;2023-10-19T12:37:23;16.88;;;11.43;;
75542;SDS011;64129;53.508;10.476;2023-10-19T12:40:18;13.50;;;9.38;;
75542;SDS011;64129;53.508;10.476;2023-10-19T12:43:07;17.83;;;11.80;;
75542;SDS011;64129;53.508;10.476;2023-10-19T12:45:57;19.27;;;11.68;;
75542;SDS011;64129;53.508;10.476;2023-10-19T12:48:25;16.63;;;11.57;;
75542;SDS011;64129;53.508;10.476;2023-10-19T12:51:04;19.15;;;12.00;;
75542;SDS011;64129;53.508;10.476;2023-10-19T12:53:39;13.45;;;8.40;;
75542;SDS011;64129;53.508;10.476;2023-10-19T12:56:09;20.60;;;11.63;;
75542;SDS011;64129;53.508;10.476;2023-10-19T12:58:45;16.55;;;11.35;;
75542;SDS011;64129;53.508;10.476;2023-10-19T13:01:18;17.52;;;10.65;;
75542;SDS011;64129;53.508;10.476;2023-10-19T13:04:00;15.65;;;11.18;;
75542;SDS011;64129;53.508;10.476;2023-10-19T13:06:44;17.00;;;11.38;;
75542;SDS011;64129;53.508;10.476;2023-10-19T13:09:20;16.35;;;11.75;;
75542;SDS011;64129;53.508;10.476;2023-10-19T13:12:09;18.67;;;12.02;;
75542;SDS011;64129;53.508;10.476;2023-10-19T13:15:01;16.05;;;10.07;;
75542;SDS011;64129;53.508;10.476;2023-10-19T13:17:31;20.00;;;12.57;;
75542;SDS011;64129;53.508;10.476;2023-10-19T13:19:59;15.38;;;10.20;;
75542;SDS011;64129;53.508;10.476;2023-10-19T13:22:30;18.92;;;12.00;;
75542;SDS011;64129;53.508;10.476;2023-10-19T13:28:06;15.75;;;9.48;;
75542;SDS011;64129;53.508;10.476;2023-10-19T13:30:50;13.20;;;9.95;;
75542;SDS011;64129;53.508;10.476;2023-10-19T13:33:22;17.48;;;11.45;;
75542;SDS011;64129;53.508;10.476;2023-10-19T13:35:52;16.27;;;10.98;;
75542;SDS011;64129;53.508;10.476;2023-10-19T13:38:19;15.15;;;10.90;;
75542;SDS011;64129;53.508;10.476;2023-10-19T13:40:49;17.52;;;10.32;;
75542;SDS011;64129;53.508;10.476;2023-10-19T13:43:30;17.73;;;11.40;;
75542;SDS011;64129;53.508;10.476;2023-10-19T13:46:04;12.77;;;8.45;;
75542;SDS011;64129;53.508;10.476;2023-10-19T13:48:31;16.60;;;10.70;;
75542;SDS011;64129;53.508;10.476;2023-10-19T13:51:02;18.13;;;11.02;;
75542;SDS011;64129;53.508;10.476;2023-10-19T13:53:39;16.17;;;11.73;;
75542;SDS011;64129;53.508;10.476;2023-10-19T13:56:23;16.63;;;11.05;;
75542;SDS011;64129;53.508;10.476;2023-10-19T13:59:01;18.48;;;11.82;;
75542;SDS011;64129;53.508;10.476;2023-10-19T14:01:38;17.90;;;11.32;;
75542;SDS011;64129;53.508;10.476;2023-10-19T14:04:09;17.08;;;11.45;;
75542;SDS011;64129;53.508;10.476;2023-10-19T14:06:43;16.80;;;11.65;;
75542;SDS011;64129;53.508;10.476;2023-10-19T14:09:19;14.13;;;10.65;;
75542;SDS011;64129;53.508;10.476;2023-10-19T14:11:50;15.38;;;11.02;;
75542;SDS011;64129;53.508;10.476;2023-10-19T14:14:31;16.33;;;12.02;;
75542;SDS011;64129;53.508;10.476;2023-10-19T14:17:22;17.35;;;11.82;;
75542;SDS011;64129;53.508;10.476;2023-10-19T14:19:52;16.45;;;12.20;;
75542;SDS011;64129;53.508;10.476;2023-10-19T14:22:41;14.40;;;11.27;;
75542;SDS011;64129;53.508;10.476;2023-10-19T14:25:17;13.73;;;10.00;;
75542;SDS011;64129;53.508;10.476;2023-10-19T14:28:16;16.23;;;11.07;;
75542;SDS011;64129;53.508;10.476;2023-10-19T14:30:50;18.42;;;11.55;;
75542;SDS011;64129;53.508;10.476;2023-10-19T14:33:24;17.45;;;11.20;;
75542;SDS011;64129;53.508;10.476;2023-10-19T14:36:12;17.73;;;11.88;;
75542;SDS011;64129;53.508;10.476;2023-10-19T14:38:47;19.40;;;11.13;;
75542;SDS011;64129;53.508;10.476;2023-10-19T14:41:25;19.58;;;12.50;;
75542;SDS011;64129;53.508;10.476;2023-10-19T14:43:54;15.23;;;10.70;;
75542;SDS011;64129;53.508;10.476;2023-10-19T14:46:34;17.55;;;12.60;;
75542;SDS011;64129;53.508;10.476;2023-10-19T14:49:24;19.80;;;12.90;;
75542;SDS011;64129;53.508;10.476;2023-10-19T14:51:56;16.67;;;11.85;;
75542;SDS011;64129;53.508;10.476;2023-10-19T14:54:29;20.80;;;12.43;;
75542;SDS011;64129;53.508;10.476;2023-10-19T14:56:59;21.10;;;12.00;;
75542;SDS011;64129;53.508;10.476;2023-10-19T14:59:29;23.83;;;14.25;;
75542;SDS011;64129;53.508;10.476;2023-10-19T15:02:27;16.25;;;10.70;;
75542;SDS011;64129;53.508;10.476;2023-10-19T15:04:56;17.95;;;11.25;;
75542;SDS011;64129;53.508;10.476;2023-10-19T15:07:31;22.05;;;13.73;;
75542;SDS011;64129;53.508;10.476;2023-10-19T15:10:07;21.23;;;13.32;;
75542;SDS011;64129;53.508;10.476;2023-10-19T15:12:36;21.80;;;14.20;;
75542;SDS011;64129;53.508;10.476;2023-10-19T15:15:09;22.38;;;14.50;;
75542;SDS011;64129;53.508;10.476;2023-10-19T15:17:43;22.70;;;13.57;;
75542;SDS011;64129;53.508;10.476;2023-10-19T15:20:14;22.05;;;14.80;;
75542;SDS011;64129;53.508;10.476;2023-10-19T15:22:57;23.33;;;14.07;;
75542;SDS011;64129;53.508;10.476;2023-10-19T15:25:54;27.42;;;14.55;;
75542;SDS011;64129;53.508;10.476;2023-10-19T15:28:45;24.10;;;16.17;;
75542;SDS011;64129;53.508;10.476;2023-10-19T15:31:31;25.58;;;15.57;;
75542;SDS011;64129;53.508;10.476;2023-10-19T15:34:10;25.92;;;15.02;;
75542;SDS011;64129;53.508;10.476;2023-10-19T15:36:40;22.67;;;16.30;;
75542;SDS011;64129;53.508;10.476;2023-10-19T15:39:15;25.08;;;16.55;;
75542;SDS011;64129;53.508;10.476;2023-10-19T15:41:56;21.13;;;15.48;;
75542;SDS011;64129;53.508;10.476;2023-10-19T15:44:28;21.30;;;15.38;;
75542;SDS011;64129;53.508;10.476;2023-10-19T15:47:18;23.58;;;14.57;;
75542;SDS011;64129;53.508;10.476;2023-10-19T15:49:47;25.33;;;16.60;;
75542;SDS011;64129;53.508;10.476;2023-10-19T15:52:26;25.45;;;14.85;;
75542;SDS011;64129;53.508;10.476;2023-10-19T15:55:19;22.52;;;15.07;;
75542;SDS011;64129;53.508;10.476;2023-10-19T15:57:59;24.17;;;15.25;;
75542;SDS011;64129;53.508;10.476;2023-10-19T16:00:29;25.38;;;16.50;;